Middle River, Maryland
Current Conditions -  °F | °C
As of 1:21 AM on Monday 22 Dec 2014 (Local Time) from KMTN Reporting Station
Clear Clear  
Wind Chill: 28°   Ceiling: Unl
Heat Index: 28°   Visibility: 10mi
Dew Point: 25°   Wind: 0mph
Humidity: 86%   Direction: NA
Pressure: 30.34"   Gusts: NA
Location:  39.34°N, 76.4°W
Report Text: KMTN 220621Z AUTO 00000KT 10SM CLR M02/M04 A3034 RMK AO2
Loading
Personal Weather Stations






























Interactive Weather Map New forecast layout! Learn more

10-Day Weather Forecast

Advertisements
Track Severe Weather on mobile